Muscle Shoals, AL

1:07 AM CDT on July 29, 2016 (GMT -0500)
Jackson Heights | | Change Station

Elev 525 ft 34.75 °N, 87.64 °W | Updated 14 seconds ago

Clear
Clear
73.9 °F
Feels Like 70 °F
N
0.0
Wind Variable Wind from South
Gusts 0.0 mph

Today
High -- | Low -- °F
--% Chance of Precip.
Yesterday
High -- | Low -- °F
Precip. -- in
Pressure 29.99 in
Visibility 9.0 miles
Clouds Clear
Heat Index 70 °F
Dew Point 73 °F
Humidity 97%
Rainfall 0.00 in
Snow Depth Not available.
5:58 AM 7:54 PM
Waning Crescent, 25% visible
METAR KMSL 290553Z AUTO 19003KT 9SM CLR 23/22 A3000 RMK AO2 SLP153 60001 T02280217 10250 20228 402830228 53001
Pressure 29.99 in
Visibility 9.0 miles
Clouds Clear
Heat Index 70 °F
Dew Point 73 °F
Humidity 97%
Rainfall 0.00 in
Snow Depth Not available.
5:58 AM 7:54 PM
Waning Crescent, 25% visible
METAR KMSL 290553Z AUTO 19003KT 9SM CLR 23/22 A3000 RMK AO2 SLP153 60001 T02280217 10250 20228 402830228 53001

10-Day Weather Forecast

Almanac

Astronomy

Jul. 29, 2016 Rise Set
Actual Time
Civil Twilight
Nautical Twilight
Astronomical Twilight
Moon
Length of Visible Light
Length of Day
Tomorrow will be .
, % of the Moon is Illuminated

Today's Extremes

State Highs State Lows

Community

WunderPhotos

Upload Photos

1,928,299 photos uploaded!

WunderBlog® & News

Nearby

Air Quality

  Air Quality AQ Index Pollutant
Not available.

Snow Depth

Station Depth Elevation

Earthquake Activity

City Distance Mag. Time & Date
Minimum magnitude displayed is 2.5.

Coastal Water Temperatures

Place Temperature

Stations

Nearby Weather Stations

Station Location Temp. Windchill Dew Point Humidity Wind Precip. Elev Updated Type
                   

Watches & Warnings

There are currently no watches in effect.